createdAt,value
2017-10-07T00:01:31.435Z,11.47
2017-10-07T00:06:32.295Z,12.00
2017-10-07T00:11:33.124Z,11.53
2017-10-07T00:16:33.973Z,11.60
2017-10-07T00:21:34.815Z,11.63
2017-10-07T00:26:35.675Z,10.87
2017-10-07T00:31:36.513Z,10.10
2017-10-07T00:36:37.375Z,11.23
2017-10-07T00:41:38.209Z,10.23
2017-10-07T00:46:39.070Z,10.03
2017-10-07T00:51:39.903Z,10.30
2017-10-07T00:56:40.744Z,10.40
2017-10-07T01:01:41.585Z,9.80
2017-10-07T01:06:42.443Z,10.17
2017-10-07T01:11:43.296Z,9.10
2017-10-07T01:16:44.144Z,9.77
2017-10-07T01:21:44.990Z,9.07
2017-10-07T01:26:45.856Z,8.97
2017-10-07T01:31:46.691Z,8.30
2017-10-07T01:36:47.528Z,8.77
2017-10-07T01:41:48.406Z,9.57
2017-10-07T01:46:49.244Z,8.50
2017-10-07T01:51:50.096Z,7.80
2017-10-07T01:56:50.947Z,8.87
2017-10-07T02:01:51.790Z,8.03
2017-10-07T02:06:52.632Z,8.20
2017-10-07T02:11:53.473Z,8.13
2017-10-07T02:16:54.338Z,8.40
2017-10-07T02:21:55.183Z,8.07
2017-10-07T02:26:56.028Z,7.67
2017-10-07T02:31:56.880Z,7.07
2017-10-07T02:36:57.720Z,7.27
2017-10-07T02:41:58.596Z,7.93
2017-10-07T02:46:59.447Z,7.53
2017-10-07T02:52:00.339Z,7.10
2017-10-07T02:57:01.174Z,6.67
2017-10-07T03:02:02.058Z,7.00
2017-10-07T03:07:02.896Z,7.50
2017-10-07T03:12:03.740Z,7.00
2017-10-07T03:17:04.584Z,6.30
2017-10-07T03:22:05.415Z,6.53
2017-10-07T03:27:06.252Z,6.33
2017-10-07T03:32:07.110Z,6.30
2017-10-07T03:37:07.942Z,6.70
2017-10-07T03:42:08.811Z,6.87
2017-10-07T03:47:09.649Z,5.93
2017-10-07T03:52:10.496Z,6.13
2017-10-07T03:57:11.327Z,6.10
2017-10-07T04:02:12.168Z,6.00
2017-10-07T04:07:13.007Z,5.60
2017-10-07T04:12:13.927Z,6.17
2017-10-07T04:17:14.784Z,6.03
2017-10-07T04:22:15.646Z,5.60
2017-10-07T04:27:16.472Z,6.60
2017-10-07T04:32:17.348Z,5.77
2017-10-07T04:37:18.195Z,5.40
2017-10-07T04:42:19.019Z,6.53
2017-10-07T04:47:19.859Z,5.53
2017-10-07T04:52:20.702Z,6.03
2017-10-07T04:57:21.545Z,5.50
2017-10-07T05:02:22.416Z,5.50
2017-10-07T05:07:23.236Z,5.97
2017-10-07T05:12:24.075Z,4.63
2017-10-07T05:17:24.927Z,5.10
2017-10-07T05:22:25.771Z,5.03
2017-10-07T05:27:26.601Z,4.87
2017-10-07T05:32:27.444Z,4.57
2017-10-07T05:37:28.287Z,4.80
2017-10-07T05:42:29.139Z,5.30
2017-10-07T05:47:29.993Z,5.13
2017-10-07T05:52:30.832Z,4.30
2017-10-07T05:57:31.703Z,4.37
2017-10-07T06:02:32.546Z,4.47
2017-10-07T06:07:33.375Z,4.33
2017-10-07T06:12:34.220Z,4.10
2017-10-07T06:17:35.050Z,4.37
2017-10-07T06:22:35.895Z,4.20
2017-10-07T06:27:36.728Z,3.80
2017-10-07T06:32:37.575Z,4.33
2017-10-07T06:37:38.419Z,3.60
2017-10-07T06:42:39.273Z,3.80
2017-10-07T06:47:40.114Z,4.00
2017-10-07T06:52:40.980Z,3.43
2017-10-07T06:57:41.840Z,3.80
2017-10-07T07:02:42.797Z,3.40
2017-10-07T07:07:43.622Z,3.87
2017-10-07T07:12:44.467Z,3.43
2017-10-07T07:17:45.367Z,3.30
2017-10-07T07:22:46.217Z,3.63
2017-10-07T07:27:47.071Z,3.40
2017-10-07T07:32:47.912Z,3.47
2017-10-07T07:37:48.761Z,3.47
2017-10-07T07:42:49.626Z,3.20
2017-10-07T07:47:50.496Z,4.23
2017-10-07T07:52:51.329Z,3.33
2017-10-07T07:57:52.171Z,3.10
2017-10-07T08:02:53.036Z,3.03
2017-10-07T08:07:53.870Z,3.10
2017-10-07T08:12:54.711Z,3.17
2017-10-07T08:17:55.554Z,3.10
2017-10-07T08:22:56.409Z,2.80
2017-10-07T08:27:57.272Z,2.90
2017-10-07T08:32:58.123Z,3.47
2017-10-07T08:37:58.947Z,2.83
2017-10-07T08:42:59.796Z,2.67
2017-10-07T08:48:00.653Z,2.87
2017-10-07T08:53:01.531Z,2.70
2017-10-07T08:58:02.363Z,2.60
2017-10-07T09:03:03.208Z,2.93
2017-10-07T09:08:04.061Z,2.80
2017-10-07T09:13:04.916Z,3.73
2017-10-07T09:18:05.754Z,3.20
2017-10-07T09:23:06.642Z,2.57
2017-10-07T09:28:07.491Z,2.40
2017-10-07T09:33:08.351Z,2.40
2017-10-07T09:38:09.195Z,2.80
2017-10-07T09:43:10.036Z,2.37
2017-10-07T09:48:10.896Z,2.73
2017-10-07T09:53:11.741Z,2.23
2017-10-07T09:58:12.588Z,2.73
2017-10-07T10:03:13.440Z,2.50
2017-10-07T10:08:14.288Z,2.07
2017-10-07T10:13:15.149Z,1.93
2017-10-07T10:18:15.997Z,2.40
2017-10-07T10:23:16.832Z,2.00
2017-10-07T10:28:17.674Z,2.60
2017-10-07T10:33:18.522Z,2.10
2017-10-07T10:38:19.362Z,2.50
2017-10-07T10:43:20.219Z,2.60
2017-10-07T10:48:21.121Z,1.97
2017-10-07T10:53:21.992Z,1.93
2017-10-07T10:58:22.930Z,2.20
2017-10-07T11:03:23.771Z,2.03
2017-10-07T11:08:24.613Z,2.40
2017-10-07T11:13:25.556Z,2.20
2017-10-07T11:18:26.412Z,2.27
2017-10-07T11:23:27.262Z,2.20
2017-10-07T11:28:28.104Z,2.40
2017-10-07T11:33:28.945Z,2.07
2017-10-07T11:38:29.805Z,2.03
2017-10-07T11:43:30.725Z,2.10
2017-10-07T11:48:31.587Z,1.93
2017-10-07T11:53:32.424Z,1.83
2017-10-07T11:58:33.290Z,2.50
2017-10-07T12:03:34.136Z,2.53
2017-10-07T12:08:35.012Z,2.30
2017-10-07T12:13:35.847Z,2.10
2017-10-07T12:18:36.711Z,2.03
2017-10-07T12:23:37.587Z,1.77
2017-10-07T12:28:38.434Z,1.60
2017-10-07T12:33:39.303Z,2.03
2017-10-07T12:38:40.152Z,1.83
2017-10-07T12:43:40.995Z,2.20
2017-10-07T12:48:41.850Z,1.80
2017-10-07T12:53:42.702Z,1.77
2017-10-07T12:58:43.567Z,2.10
2017-10-07T13:03:44.401Z,1.70
2017-10-07T13:08:45.266Z,1.97
2017-10-07T13:13:46.168Z,2.10
2017-10-07T13:18:47.123Z,1.90
2017-10-07T13:23:47.980Z,1.73
2017-10-07T13:28:48.844Z,2.27
2017-10-07T13:33:49.683Z,2.03
2017-10-07T13:38:50.535Z,2.20
2017-10-07T13:43:51.391Z,3.67
2017-10-07T13:48:52.268Z,2.77
2017-10-07T13:53:53.134Z,2.33
2017-10-07T13:58:53.964Z,3.07
2017-10-07T14:03:54.802Z,2.43
2017-10-07T14:08:55.656Z,2.53
2017-10-07T14:13:56.564Z,2.40
2017-10-07T14:18:57.404Z,2.73
2017-10-07T14:23:58.255Z,2.40
2017-10-07T14:28:59.130Z,2.53
2017-10-07T14:33:59.977Z,2.00
2017-10-07T14:39:00.834Z,2.07
2017-10-07T14:44:01.701Z,2.87
2017-10-07T14:49:02.563Z,2.47
2017-10-07T14:54:03.431Z,2.13
2017-10-07T14:59:04.278Z,2.50
2017-10-07T15:04:05.135Z,2.73
2017-10-07T15:09:05.999Z,2.73
2017-10-07T15:14:06.848Z,2.73
2017-10-07T15:19:07.770Z,3.37
2017-10-07T15:24:08.603Z,2.30
2017-10-07T15:29:09.428Z,2.67
2017-10-07T15:34:10.279Z,2.10
2017-10-07T15:39:11.144Z,2.83
2017-10-07T15:44:12.007Z,2.30
2017-10-07T15:49:12.893Z,2.57
2017-10-07T15:54:13.755Z,2.70
2017-10-07T15:59:14.598Z,1.70
2017-10-07T16:04:15.443Z,1.63
2017-10-07T16:09:16.295Z,2.10
2017-10-07T16:14:17.123Z,2.10
2017-10-07T16:19:18.131Z,2.30
2017-10-07T16:24:19.031Z,2.07
2017-10-07T16:29:19.880Z,1.53
2017-10-07T16:34:20.743Z,2.30
2017-10-07T16:39:21.604Z,2.30
2017-10-07T16:44:22.605Z,2.10
2017-10-07T16:49:23.488Z,2.10
2017-10-07T16:54:24.339Z,2.17
2017-10-07T16:59:25.273Z,2.50
2017-10-07T17:04:26.107Z,2.47
2017-10-07T17:09:26.961Z,2.30
2017-10-07T17:14:27.823Z,2.07
2017-10-07T17:19:29.382Z,2.20
2017-10-07T17:24:30.256Z,2.00
2017-10-07T17:29:31.148Z,2.80
2017-10-07T17:34:32.005Z,2.23
2017-10-07T17:39:32.948Z,2.50
2017-10-07T17:44:33.822Z,1.90
2017-10-07T17:49:34.682Z,2.73
2017-10-07T17:54:35.527Z,2.70
2017-10-07T17:59:36.385Z,2.07
2017-10-07T18:04:37.254Z,2.10
2017-10-07T18:09:38.102Z,2.53
2017-10-07T18:14:38.944Z,1.97
2017-10-07T18:19:39.815Z,1.63
2017-10-07T18:24:40.682Z,1.83
2017-10-07T18:29:41.547Z,2.17
2017-10-07T18:34:42.425Z,2.27
2017-10-07T18:39:43.422Z,1.80
2017-10-07T18:44:44.290Z,1.73
2017-10-07T18:49:45.150Z,1.90
2017-10-07T18:54:46.021Z,2.10
2017-10-07T18:59:46.897Z,1.70
2017-10-07T19:04:47.772Z,1.77
2017-10-07T19:09:48.618Z,2.30
2017-10-07T19:14:49.514Z,2.23
2017-10-07T19:19:50.429Z,1.80
2017-10-07T19:24:51.290Z,1.90
2017-10-07T19:29:52.175Z,1.87
2017-10-07T19:34:53.031Z,2.07
2017-10-07T19:39:53.895Z,2.20
2017-10-07T19:44:55.521Z,1.80
2017-10-07T19:49:56.424Z,2.30
2017-10-07T19:54:57.268Z,2.20
2017-10-07T19:59:58.126Z,2.53
2017-10-07T20:04:59.087Z,4.00
2017-10-07T20:09:59.942Z,3.80
2017-10-07T20:15:00.837Z,3.93
2017-10-07T20:20:01.724Z,3.97
2017-10-07T20:25:03.419Z,4.53
2017-10-07T20:30:04.299Z,4.60
2017-10-07T20:35:05.154Z,4.63
2017-10-07T20:40:06.006Z,3.47
2017-10-07T20:45:06.942Z,3.63
2017-10-07T20:50:07.810Z,3.03
2017-10-07T20:55:08.671Z,4.10
2017-10-07T21:00:09.541Z,3.77
2017-10-07T21:05:10.422Z,3.00
2017-10-07T21:10:11.297Z,2.70
2017-10-07T21:15:12.147Z,3.30
2017-10-07T21:20:13.363Z,3.80
2017-10-07T21:25:14.247Z,3.37
2017-10-07T21:30:15.108Z,3.90
2017-10-07T21:35:15.976Z,3.67
2017-10-07T21:40:16.816Z,3.97
2017-10-07T21:45:17.688Z,4.27
2017-10-07T21:50:18.548Z,3.30
2017-10-07T21:55:19.382Z,4.57
2017-10-07T22:00:20.248Z,3.13
2017-10-07T22:05:21.099Z,3.20
2017-10-07T22:10:21.945Z,3.67
2017-10-07T22:15:22.823Z,3.47
2017-10-07T22:20:23.672Z,3.10
2017-10-07T22:25:24.649Z,3.20
2017-10-07T22:30:25.505Z,2.87
2017-10-07T22:35:26.388Z,3.23
2017-10-07T22:40:27.267Z,2.90
2017-10-07T22:45:28.115Z,3.07
2017-10-07T22:50:28.985Z,2.37
2017-10-07T22:55:29.861Z,2.60
2017-10-07T23:00:30.711Z,2.90
2017-10-07T23:05:31.568Z,2.97
2017-10-07T23:10:32.410Z,2.93
2017-10-07T23:15:33.256Z,3.00
2017-10-07T23:20:34.114Z,3.60
2017-10-07T23:25:34.986Z,2.80
2017-10-07T23:30:35.830Z,3.30
2017-10-07T23:35:36.688Z,2.60
2017-10-07T23:40:37.550Z,2.30
2017-10-07T23:45:38.416Z,2.30
2017-10-07T23:50:39.287Z,2.63
2017-10-07T23:55:40.123Z,2.90
